sensor_id;sensor_type;location;lat;lon;timestamp;P1;durP1;ratioP1;P2;durP2;ratioP2
21245;SDS011;10781;50.928;4.440;2023-05-07T00:01:56;5.95;;;4.07;;
21245;SDS011;10781;50.928;4.440;2023-05-07T00:04:22;6.05;;;4.07;;
21245;SDS011;10781;50.928;4.440;2023-05-07T00:06:47;7.63;;;4.10;;
21245;SDS011;10781;50.928;4.440;2023-05-07T00:09:13;6.63;;;4.32;;
21245;SDS011;10781;50.928;4.440;2023-05-07T00:11:39;9.02;;;5.03;;
21245;SDS011;10781;50.928;4.440;2023-05-07T00:14:05;9.20;;;4.80;;
21245;SDS011;10781;50.928;4.440;2023-05-07T00:16:31;8.75;;;4.57;;
21245;SDS011;10781;50.928;4.440;2023-05-07T00:18:57;11.05;;;4.85;;
21245;SDS011;10781;50.928;4.440;2023-05-07T00:21:22;7.72;;;4.53;;
21245;SDS011;10781;50.928;4.440;2023-05-07T00:23:51;6.85;;;4.57;;
21245;SDS011;10781;50.928;4.440;2023-05-07T00:26:18;7.63;;;4.38;;
21245;SDS011;10781;50.928;4.440;2023-05-07T00:28:43;8.73;;;4.45;;
21245;SDS011;10781;50.928;4.440;2023-05-07T00:31:09;7.13;;;4.47;;
21245;SDS011;10781;50.928;4.440;2023-05-07T00:33:35;11.05;;;5.28;;
21245;SDS011;10781;50.928;4.440;2023-05-07T00:36:00;10.77;;;5.38;;
21245;SDS011;10781;50.928;4.440;2023-05-07T00:38:26;8.98;;;5.75;;
21245;SDS011;10781;50.928;4.440;2023-05-07T00:40:52;10.85;;;5.15;;
21245;SDS011;10781;50.928;4.440;2023-05-07T00:43:18;8.48;;;5.10;;
21245;SDS011;10781;50.928;4.440;2023-05-07T00:45:44;10.77;;;5.10;;
21245;SDS011;10781;50.928;4.440;2023-05-07T00:48:09;11.27;;;5.60;;
21245;SDS011;10781;50.928;4.440;2023-05-07T00:50:35;8.50;;;4.85;;
21245;SDS011;10781;50.928;4.440;2023-05-07T00:53:01;7.70;;;5.05;;
21245;SDS011;10781;50.928;4.440;2023-05-07T00:55:27;8.77;;;4.60;;
21245;SDS011;10781;50.928;4.440;2023-05-07T00:57:54;7.30;;;4.70;;
21245;SDS011;10781;50.928;4.440;2023-05-07T01:00:20;8.07;;;4.53;;
21245;SDS011;10781;50.928;4.440;2023-05-07T01:02:46;8.32;;;4.68;;
21245;SDS011;10781;50.928;4.440;2023-05-07T01:05:12;8.48;;;5.13;;
21245;SDS011;10781;50.928;4.440;2023-05-07T01:07:40;8.32;;;4.35;;
21245;SDS011;10781;50.928;4.440;2023-05-07T01:10:07;8.65;;;4.45;;
21245;SDS011;10781;50.928;4.440;2023-05-07T01:12:34;6.35;;;4.43;;
21245;SDS011;10781;50.928;4.440;2023-05-07T01:15:02;7.95;;;4.75;;
21245;SDS011;10781;50.928;4.440;2023-05-07T01:17:29;10.98;;;4.50;;
21245;SDS011;10781;50.928;4.440;2023-05-07T01:19:57;8.02;;;4.57;;
21245;SDS011;10781;50.928;4.440;2023-05-07T01:22:33;7.82;;;4.82;;
21245;SDS011;10781;50.928;4.440;2023-05-07T01:25:01;9.23;;;4.72;;
21245;SDS011;10781;50.928;4.440;2023-05-07T01:27:32;6.78;;;4.43;;
21245;SDS011;10781;50.928;4.440;2023-05-07T01:29:58;8.85;;;4.72;;
21245;SDS011;10781;50.928;4.440;2023-05-07T01:32:29;8.25;;;4.20;;
21245;SDS011;10781;50.928;4.440;2023-05-07T01:35:00;7.78;;;4.47;;
21245;SDS011;10781;50.928;4.440;2023-05-07T01:37:27;7.70;;;4.47;;
21245;SDS011;10781;50.928;4.440;2023-05-07T01:39:53;6.18;;;4.50;;
21245;SDS011;10781;50.928;4.440;2023-05-07T01:42:20;9.25;;;4.28;;
21245;SDS011;10781;50.928;4.440;2023-05-07T01:44:46;10.52;;;5.10;;
21245;SDS011;10781;50.928;4.440;2023-05-07T01:47:13;8.95;;;5.25;;
21245;SDS011;10781;50.928;4.440;2023-05-07T01:49:39;7.55;;;4.90;;
21245;SDS011;10781;50.928;4.440;2023-05-07T01:52:06;6.70;;;5.10;;
21245;SDS011;10781;50.928;4.440;2023-05-07T01:54:32;7.28;;;4.88;;
21245;SDS011;10781;50.928;4.440;2023-05-07T01:56:59;7.40;;;4.95;;
21245;SDS011;10781;50.928;4.440;2023-05-07T01:59:25;8.80;;;5.43;;
21245;SDS011;10781;50.928;4.440;2023-05-07T02:01:51;6.85;;;5.22;;
21245;SDS011;10781;50.928;4.440;2023-05-07T02:04:17;7.88;;;5.30;;
21245;SDS011;10781;50.928;4.440;2023-05-07T02:06:42;9.80;;;5.88;;
21245;SDS011;10781;50.928;4.440;2023-05-07T02:09:08;7.60;;;5.30;;
21245;SDS011;10781;50.928;4.440;2023-05-07T02:11:34;7.45;;;5.15;;
21245;SDS011;10781;50.928;4.440;2023-05-07T02:14:00;9.15;;;5.55;;
21245;SDS011;10781;50.928;4.440;2023-05-07T02:16:26;7.68;;;6.28;;
21245;SDS011;10781;50.928;4.440;2023-05-07T02:18:51;9.75;;;6.07;;
21245;SDS011;10781;50.928;4.440;2023-05-07T02:21:18;8.80;;;5.75;;
21245;SDS011;10781;50.928;4.440;2023-05-07T02:23:44;8.85;;;6.30;;
21245;SDS011;10781;50.928;4.440;2023-05-07T02:26:10;9.15;;;6.03;;
21245;SDS011;10781;50.928;4.440;2023-05-07T02:28:36;7.85;;;5.82;;
21245;SDS011;10781;50.928;4.440;2023-05-07T02:31:04;7.50;;;6.50;;
21245;SDS011;10781;50.928;4.440;2023-05-07T02:33:30;7.35;;;6.25;;
21245;SDS011;10781;50.928;4.440;2023-05-07T02:35:56;8.10;;;6.18;;
21245;SDS011;10781;50.928;4.440;2023-05-07T02:38:29;7.82;;;6.30;;
21245;SDS011;10781;50.928;4.440;2023-05-07T02:40:55;7.28;;;6.10;;
21245;SDS011;10781;50.928;4.440;2023-05-07T02:43:21;10.20;;;6.50;;
21245;SDS011;10781;50.928;4.440;2023-05-07T02:45:46;11.18;;;6.72;;
21245;SDS011;10781;50.928;4.440;2023-05-07T02:48:12;11.57;;;6.50;;
21245;SDS011;10781;50.928;4.440;2023-05-07T02:50:37;7.97;;;5.50;;
21245;SDS011;10781;50.928;4.440;2023-05-07T02:53:03;8.77;;;6.10;;
21245;SDS011;10781;50.928;4.440;2023-05-07T02:55:29;8.73;;;6.30;;
21245;SDS011;10781;50.928;4.440;2023-05-07T02:57:55;10.27;;;6.72;;
21245;SDS011;10781;50.928;4.440;2023-05-07T03:00:20;9.05;;;6.90;;
21245;SDS011;10781;50.928;4.440;2023-05-07T03:02:46;10.13;;;6.93;;
21245;SDS011;10781;50.928;4.440;2023-05-07T03:05:12;10.75;;;6.72;;
21245;SDS011;10781;50.928;4.440;2023-05-07T03:07:39;8.65;;;6.45;;
21245;SDS011;10781;50.928;4.440;2023-05-07T03:10:06;10.52;;;6.97;;
21245;SDS011;10781;50.928;4.440;2023-05-07T03:12:32;9.20;;;6.57;;
21245;SDS011;10781;50.928;4.440;2023-05-07T03:14:57;11.07;;;7.07;;
21245;SDS011;10781;50.928;4.440;2023-05-07T03:17:23;9.40;;;6.40;;
21245;SDS011;10781;50.928;4.440;2023-05-07T03:19:49;8.60;;;6.93;;
21245;SDS011;10781;50.928;4.440;2023-05-07T03:22:14;10.30;;;6.93;;
21245;SDS011;10781;50.928;4.440;2023-05-07T03:24:40;10.70;;;6.53;;
21245;SDS011;10781;50.928;4.440;2023-05-07T03:27:06;11.02;;;6.88;;
21245;SDS011;10781;50.928;4.440;2023-05-07T03:29:32;9.82;;;7.13;;
21245;SDS011;10781;50.928;4.440;2023-05-07T03:31:57;9.93;;;6.78;;
21245;SDS011;10781;50.928;4.440;2023-05-07T03:34:23;8.25;;;6.60;;
21245;SDS011;10781;50.928;4.440;2023-05-07T03:36:49;8.23;;;6.40;;
21245;SDS011;10781;50.928;4.440;2023-05-07T03:39:14;8.93;;;6.30;;
21245;SDS011;10781;50.928;4.440;2023-05-07T03:41:40;9.07;;;6.70;;
21245;SDS011;10781;50.928;4.440;2023-05-07T03:44:06;8.63;;;6.63;;
21245;SDS011;10781;50.928;4.440;2023-05-07T03:46:32;11.02;;;6.72;;
21245;SDS011;10781;50.928;4.440;2023-05-07T03:48:58;9.18;;;6.75;;
21245;SDS011;10781;50.928;4.440;2023-05-07T03:51:24;9.80;;;7.00;;
21245;SDS011;10781;50.928;4.440;2023-05-07T03:53:51;8.52;;;6.80;;
21245;SDS011;10781;50.928;4.440;2023-05-07T03:56:18;9.18;;;6.95;;
21245;SDS011;10781;50.928;4.440;2023-05-07T03:58:44;9.10;;;6.47;;
21245;SDS011;10781;50.928;4.440;2023-05-07T04:01:10;9.68;;;7.35;;
21245;SDS011;10781;50.928;4.440;2023-05-07T04:03:36;10.82;;;7.78;;
21245;SDS011;10781;50.928;4.440;2023-05-07T04:06:02;9.52;;;7.38;;
21245;SDS011;10781;50.928;4.440;2023-05-07T04:08:27;9.68;;;7.32;;
21245;SDS011;10781;50.928;4.440;2023-05-07T04:10:56;9.50;;;7.80;;
21245;SDS011;10781;50.928;4.440;2023-05-07T04:13:23;9.00;;;7.00;;
21245;SDS011;10781;50.928;4.440;2023-05-07T04:15:51;8.55;;;7.32;;
21245;SDS011;10781;50.928;4.440;2023-05-07T04:18:17;9.07;;;7.75;;
21245;SDS011;10781;50.928;4.440;2023-05-07T04:20:43;9.60;;;7.32;;
21245;SDS011;10781;50.928;4.440;2023-05-07T04:23:08;9.90;;;7.47;;
21245;SDS011;10781;50.928;4.440;2023-05-07T04:25:34;12.25;;;7.70;;
21245;SDS011;10781;50.928;4.440;2023-05-07T04:28:00;10.80;;;7.55;;
21245;SDS011;10781;50.928;4.440;2023-05-07T04:30:25;15.18;;;7.95;;
21245;SDS011;10781;50.928;4.440;2023-05-07T04:32:51;10.05;;;7.65;;
21245;SDS011;10781;50.928;4.440;2023-05-07T04:35:17;8.73;;;7.70;;
21245;SDS011;10781;50.928;4.440;2023-05-07T04:37:43;10.48;;;8.60;;
21245;SDS011;10781;50.928;4.440;2023-05-07T04:40:09;12.85;;;9.27;;
21245;SDS011;10781;50.928;4.440;2023-05-07T04:42:35;11.10;;;9.13;;
21245;SDS011;10781;50.928;4.440;2023-05-07T04:45:01;12.38;;;9.65;;
21245;SDS011;10781;50.928;4.440;2023-05-07T04:47:27;12.00;;;9.35;;
21245;SDS011;10781;50.928;4.440;2023-05-07T04:49:53;14.38;;;9.48;;
21245;SDS011;10781;50.928;4.440;2023-05-07T04:52:18;11.55;;;9.07;;
21245;SDS011;10781;50.928;4.440;2023-05-07T04:54:44;11.18;;;8.80;;
21245;SDS011;10781;50.928;4.440;2023-05-07T04:57:10;13.05;;;8.90;;
21245;SDS011;10781;50.928;4.440;2023-05-07T04:59:35;17.15;;;10.00;;
21245;SDS011;10781;50.928;4.440;2023-05-07T05:02:01;13.90;;;9.88;;
21245;SDS011;10781;50.928;4.440;2023-05-07T05:04:29;12.75;;;9.68;;
21245;SDS011;10781;50.928;4.440;2023-05-07T05:06:54;12.02;;;9.30;;
21245;SDS011;10781;50.928;4.440;2023-05-07T05:09:20;13.50;;;9.90;;
21245;SDS011;10781;50.928;4.440;2023-05-07T05:11:46;11.25;;;9.27;;
21245;SDS011;10781;50.928;4.440;2023-05-07T05:14:12;10.52;;;8.70;;
21245;SDS011;10781;50.928;4.440;2023-05-07T05:16:37;11.32;;;9.10;;
21245;SDS011;10781;50.928;4.440;2023-05-07T05:19:03;16.90;;;12.43;;
21245;SDS011;10781;50.928;4.440;2023-05-07T05:21:29;13.57;;;9.35;;
21245;SDS011;10781;50.928;4.440;2023-05-07T05:23:55;15.02;;;10.07;;
21245;SDS011;10781;50.928;4.440;2023-05-07T05:26:21;9.80;;;8.45;;
21245;SDS011;10781;50.928;4.440;2023-05-07T05:28:47;11.20;;;8.57;;
21245;SDS011;10781;50.928;4.440;2023-05-07T05:31:12;17.17;;;9.43;;
21245;SDS011;10781;50.928;4.440;2023-05-07T05:33:39;11.00;;;8.57;;
21245;SDS011;10781;50.928;4.440;2023-05-07T05:36:05;12.82;;;8.10;;
21245;SDS011;10781;50.928;4.440;2023-05-07T05:38:31;32.80;;;27.08;;
21245;SDS011;10781;50.928;4.440;2023-05-07T05:40:57;15.02;;;8.90;;
21245;SDS011;10781;50.928;4.440;2023-05-07T05:43:22;14.55;;;12.10;;
21245;SDS011;10781;50.928;4.440;2023-05-07T05:45:48;12.70;;;8.48;;
21245;SDS011;10781;50.928;4.440;2023-05-07T05:48:14;9.25;;;8.02;;
21245;SDS011;10781;50.928;4.440;2023-05-07T05:50:39;10.48;;;8.68;;
21245;SDS011;10781;50.928;4.440;2023-05-07T05:53:07;9.40;;;8.25;;
21245;SDS011;10781;50.928;4.440;2023-05-07T05:55:32;12.05;;;8.70;;
21245;SDS011;10781;50.928;4.440;2023-05-07T05:58:01;13.85;;;10.02;;
21245;SDS011;10781;50.928;4.440;2023-05-07T06:00:28;9.32;;;8.32;;
21245;SDS011;10781;50.928;4.440;2023-05-07T06:02:54;10.82;;;8.82;;
21245;SDS011;10781;50.928;4.440;2023-05-07T06:05:20;12.05;;;9.32;;
21245;SDS011;10781;50.928;4.440;2023-05-07T06:07:46;10.27;;;8.35;;
21245;SDS011;10781;50.928;4.440;2023-05-07T06:10:11;11.45;;;8.43;;
21245;SDS011;10781;50.928;4.440;2023-05-07T06:12:37;11.27;;;8.38;;
21245;SDS011;10781;50.928;4.440;2023-05-07T06:15:03;10.48;;;8.57;;
21245;SDS011;10781;50.928;4.440;2023-05-07T06:17:29;13.43;;;9.25;;
21245;SDS011;10781;50.928;4.440;2023-05-07T06:19:55;9.77;;;8.52;;
21245;SDS011;10781;50.928;4.440;2023-05-07T06:22:21;12.10;;;8.52;;
21245;SDS011;10781;50.928;4.440;2023-05-07T06:24:46;11.77;;;8.85;;
21245;SDS011;10781;50.928;4.440;2023-05-07T06:27:12;12.18;;;8.63;;
21245;SDS011;10781;50.928;4.440;2023-05-07T06:29:38;11.32;;;8.07;;
21245;SDS011;10781;50.928;4.440;2023-05-07T06:32:08;15.02;;;7.97;;
21245;SDS011;10781;50.928;4.440;2023-05-07T06:34:34;14.70;;;8.60;;
21245;SDS011;10781;50.928;4.440;2023-05-07T06:37:00;13.27;;;8.60;;
21245;SDS011;10781;50.928;4.440;2023-05-07T06:39:26;12.05;;;7.97;;
21245;SDS011;10781;50.928;4.440;2023-05-07T06:41:52;13.13;;;8.57;;
21245;SDS011;10781;50.928;4.440;2023-05-07T06:44:17;15.95;;;8.25;;
21245;SDS011;10781;50.928;4.440;2023-05-07T06:46:43;9.23;;;6.13;;
21245;SDS011;10781;50.928;4.440;2023-05-07T06:49:10;8.65;;;5.43;;
21245;SDS011;10781;50.928;4.440;2023-05-07T06:51:36;10.63;;;5.55;;
21245;SDS011;10781;50.928;4.440;2023-05-07T06:54:01;11.23;;;4.68;;
21245;SDS011;10781;50.928;4.440;2023-05-07T06:56:29;9.07;;;4.38;;
21245;SDS011;10781;50.928;4.440;2023-05-07T06:58:55;7.82;;;4.10;;
21245;SDS011;10781;50.928;4.440;2023-05-07T07:01:21;9.68;;;4.75;;
21245;SDS011;10781;50.928;4.440;2023-05-07T07:03:46;10.63;;;4.63;;
21245;SDS011;10781;50.928;4.440;2023-05-07T07:06:12;8.60;;;5.13;;
21245;SDS011;10781;50.928;4.440;2023-05-07T07:08:38;9.98;;;4.93;;
21245;SDS011;10781;50.928;4.440;2023-05-07T07:11:04;7.72;;;4.63;;
21245;SDS011;10781;50.928;4.440;2023-05-07T07:13:30;11.93;;;5.15;;
21245;SDS011;10781;50.928;4.440;2023-05-07T07:15:56;7.78;;;4.80;;
21245;SDS011;10781;50.928;4.440;2023-05-07T07:18:21;12.40;;;4.32;;
21245;SDS011;10781;50.928;4.440;2023-05-07T07:20:47;7.35;;;4.43;;
21245;SDS011;10781;50.928;4.440;2023-05-07T07:23:13;9.63;;;4.40;;
21245;SDS011;10781;50.928;4.440;2023-05-07T07:25:39;8.68;;;4.18;;
21245;SDS011;10781;50.928;4.440;2023-05-07T07:28:05;11.85;;;4.82;;
21245;SDS011;10781;50.928;4.440;2023-05-07T07:30:31;11.77;;;4.32;;
21245;SDS011;10781;50.928;4.440;2023-05-07T07:32:56;8.25;;;4.13;;
21245;SDS011;10781;50.928;4.440;2023-05-07T07:35:27;10.30;;;4.40;;
21245;SDS011;10781;50.928;4.440;2023-05-07T07:37:55;8.77;;;4.03;;
21245;SDS011;10781;50.928;4.440;2023-05-07T07:40:20;7.30;;;4.55;;
21245;SDS011;10781;50.928;4.440;2023-05-07T07:42:46;9.05;;;4.80;;
21245;SDS011;10781;50.928;4.440;2023-05-07T07:45:12;9.57;;;4.75;;
21245;SDS011;10781;50.928;4.440;2023-05-07T07:47:39;8.75;;;5.13;;
21245;SDS011;10781;50.928;4.440;2023-05-07T07:50:05;10.52;;;5.20;;
21245;SDS011;10781;50.928;4.440;2023-05-07T07:52:32;9.82;;;5.45;;
21245;SDS011;10781;50.928;4.440;2023-05-07T07:54:57;9.02;;;4.90;;
21245;SDS011;10781;50.928;4.440;2023-05-07T07:57:23;8.60;;;4.90;;
21245;SDS011;10781;50.928;4.440;2023-05-07T07:59:49;8.73;;;4.40;;
21245;SDS011;10781;50.928;4.440;2023-05-07T08:02:15;8.68;;;4.95;;
21245;SDS011;10781;50.928;4.440;2023-05-07T08:04:41;8.60;;;4.75;;
21245;SDS011;10781;50.928;4.440;2023-05-07T08:07:08;7.07;;;4.95;;
21245;SDS011;10781;50.928;4.440;2023-05-07T08:09:35;11.48;;;4.68;;
21245;SDS011;10781;50.928;4.440;2023-05-07T08:12:01;8.65;;;5.07;;
21245;SDS011;10781;50.928;4.440;2023-05-07T08:14:27;8.38;;;4.90;;
21245;SDS011;10781;50.928;4.440;2023-05-07T08:16:53;10.25;;;5.15;;
21245;SDS011;10781;50.928;4.440;2023-05-07T08:19:20;8.32;;;4.97;;
21245;SDS011;10781;50.928;4.440;2023-05-07T08:21:46;7.57;;;4.93;;
21245;SDS011;10781;50.928;4.440;2023-05-07T08:24:13;9.35;;;4.85;;
21245;SDS011;10781;50.928;4.440;2023-05-07T08:26:39;10.50;;;5.43;;
21245;SDS011;10781;50.928;4.440;2023-05-07T08:29:05;10.73;;;5.45;;
21245;SDS011;10781;50.928;4.440;2023-05-07T08:31:31;9.18;;;4.93;;
21245;SDS011;10781;50.928;4.440;2023-05-07T08:33:57;10.55;;;4.78;;
21245;SDS011;10781;50.928;4.440;2023-05-07T08:36:23;8.95;;;4.53;;
21245;SDS011;10781;50.928;4.440;2023-05-07T08:38:49;8.98;;;4.78;;
21245;SDS011;10781;50.928;4.440;2023-05-07T08:41:15;8.43;;;5.03;;
21245;SDS011;10781;50.928;4.440;2023-05-07T08:43:41;9.90;;;4.70;;
21245;SDS011;10781;50.928;4.440;2023-05-07T08:46:07;7.60;;;4.15;;
21245;SDS011;10781;50.928;4.440;2023-05-07T08:48:35;9.02;;;4.70;;
21245;SDS011;10781;50.928;4.440;2023-05-07T08:51:01;8.48;;;4.57;;
21245;SDS011;10781;50.928;4.440;2023-05-07T08:53:27;9.80;;;4.78;;
21245;SDS011;10781;50.928;4.440;2023-05-07T08:55:53;8.52;;;4.20;;
21245;SDS011;10781;50.928;4.440;2023-05-07T08:58:19;10.63;;;4.68;;
21245;SDS011;10781;50.928;4.440;2023-05-07T09:00:44;7.22;;;4.65;;
21245;SDS011;10781;50.928;4.440;2023-05-07T09:03:12;8.23;;;4.60;;
21245;SDS011;10781;50.928;4.440;2023-05-07T09:05:39;6.07;;;4.30;;
21245;SDS011;10781;50.928;4.440;2023-05-07T09:08:05;7.38;;;4.22;;
21245;SDS011;10781;50.928;4.440;2023-05-07T09:10:32;5.72;;;3.55;;
21245;SDS011;10781;50.928;4.440;2023-05-07T09:12:59;7.00;;;3.40;;
21245;SDS011;10781;50.928;4.440;2023-05-07T09:15:25;7.60;;;3.88;;
21245;SDS011;10781;50.928;4.440;2023-05-07T09:17:52;7.15;;;3.50;;
21245;SDS011;10781;50.928;4.440;2023-05-07T09:20:18;5.18;;;3.10;;
21245;SDS011;10781;50.928;4.440;2023-05-07T09:22:44;6.72;;;3.33;;
21245;SDS011;10781;50.928;4.440;2023-05-07T09:25:10;6.82;;;3.50;;
21245;SDS011;10781;50.928;4.440;2023-05-07T09:27:36;6.68;;;3.15;;
21245;SDS011;10781;50.928;4.440;2023-05-07T09:30:05;6.28;;;3.00;;
21245;SDS011;10781;50.928;4.440;2023-05-07T09:32:35;5.65;;;2.72;;
21245;SDS011;10781;50.928;4.440;2023-05-07T09:35:04;7.07;;;2.90;;
21245;SDS011;10781;50.928;4.440;2023-05-07T09:37:31;4.65;;;2.85;;
21245;SDS011;10781;50.928;4.440;2023-05-07T09:39:57;6.20;;;3.13;;
21245;SDS011;10781;50.928;4.440;2023-05-07T09:42:23;7.57;;;3.00;;
21245;SDS011;10781;50.928;4.440;2023-05-07T09:44:51;4.72;;;2.70;;
21245;SDS011;10781;50.928;4.440;2023-05-07T09:47:20;5.05;;;2.80;;
21245;SDS011;10781;50.928;4.440;2023-05-07T09:49:49;6.60;;;2.80;;
21245;SDS011;10781;50.928;4.440;2023-05-07T09:52:18;4.93;;;2.83;;
21245;SDS011;10781;50.928;4.440;2023-05-07T09:54:45;6.25;;;4.00;;
21245;SDS011;10781;50.928;4.440;2023-05-07T09:57:13;6.32;;;3.97;;
21245;SDS011;10781;50.928;4.440;2023-05-07T09:59:39;5.63;;;3.50;;
21245;SDS011;10781;50.928;4.440;2023-05-07T10:02:09;6.55;;;3.70;;
21245;SDS011;10781;50.928;4.440;2023-05-07T10:04:35;6.55;;;3.63;;
21245;SDS011;10781;50.928;4.440;2023-05-07T10:07:01;5.00;;;3.08;;
21245;SDS011;10781;50.928;4.440;2023-05-07T10:09:29;6.40;;;3.10;;
21245;SDS011;10781;50.928;4.440;2023-05-07T10:11:56;5.53;;;3.30;;
21245;SDS011;10781;50.928;4.440;2023-05-07T10:14:23;5.65;;;3.20;;
21245;SDS011;10781;50.928;4.440;2023-05-07T10:16:50;6.68;;;3.67;;
21245;SDS011;10781;50.928;4.440;2023-05-07T10:19:17;7.50;;;3.95;;
21245;SDS011;10781;50.928;4.440;2023-05-07T10:22:03;7.82;;;4.10;;
21245;SDS011;10781;50.928;4.440;2023-05-07T10:24:31;6.95;;;3.90;;
21245;SDS011;10781;50.928;4.440;2023-05-07T10:27:03;6.35;;;3.72;;
21245;SDS011;10781;50.928;4.440;2023-05-07T10:29:45;6.55;;;4.10;;
21245;SDS011;10781;50.928;4.440;2023-05-07T10:32:40;7.50;;;3.90;;
21245;SDS011;10781;50.928;4.440;2023-05-07T10:35:10;6.93;;;3.95;;
21245;SDS011;10781;50.928;4.440;2023-05-07T10:37:42;7.97;;;4.28;;
21245;SDS011;10781;50.928;4.440;2023-05-07T10:40:09;7.38;;;3.97;;
21245;SDS011;10781;50.928;4.440;2023-05-07T10:42:36;6.88;;;4.00;;
21245;SDS011;10781;50.928;4.440;2023-05-07T10:45:14;8.48;;;4.38;;
21245;SDS011;10781;50.928;4.440;2023-05-07T10:50:39;7.45;;;4.32;;
21245;SDS011;10781;50.928;4.440;2023-05-07T10:55:45;7.03;;;4.15;;
21245;SDS011;10781;50.928;4.440;2023-05-07T11:00:55;7.57;;;4.30;;
21245;SDS011;10781;50.928;4.440;2023-05-07T11:03:22;5.28;;;3.83;;
21245;SDS011;10781;50.928;4.440;2023-05-07T11:05:48;3.90;;;3.25;;
21245;SDS011;10781;50.928;4.440;2023-05-07T11:14:55;17.98;;;15.68;;
21245;SDS011;10781;50.928;4.440;2023-05-07T11:17:09;5.03;;;3.55;;
21245;SDS011;10781;50.928;4.440;2023-05-07T11:19:51;9.18;;;4.93;;
21245;SDS011;10781;50.928;4.440;2023-05-07T11:22:40;7.32;;;3.63;;
21245;SDS011;10781;50.928;4.440;2023-05-07T11:25:06;8.38;;;4.22;;
21245;SDS011;10781;50.928;4.440;2023-05-07T11:27:32;11.15;;;9.23;;
21245;SDS011;10781;50.928;4.440;2023-05-07T11:29:58;5.45;;;3.20;;
21245;SDS011;10781;50.928;4.440;2023-05-07T11:32:28;10.13;;;3.67;;
21245;SDS011;10781;50.928;4.440;2023-05-07T11:34:55;6.88;;;3.45;;
21245;SDS011;10781;50.928;4.440;2023-05-07T11:37:22;7.25;;;3.70;;
21245;SDS011;10781;50.928;4.440;2023-05-07T11:39:48;6.90;;;3.70;;
21245;SDS011;10781;50.928;4.440;2023-05-07T11:42:25;6.95;;;3.47;;
21245;SDS011;10781;50.928;4.440;2023-05-07T11:44:55;6.65;;;3.55;;
21245;SDS011;10781;50.928;4.440;2023-05-07T11:47:21;7.10;;;2.78;;
21245;SDS011;10781;50.928;4.440;2023-05-07T11:49:53;5.88;;;3.17;;
21245;SDS011;10781;50.928;4.440;2023-05-07T11:52:20;6.70;;;4.60;;
21245;SDS011;10781;50.928;4.440;2023-05-07T11:54:51;6.93;;;3.90;;
21245;SDS011;10781;50.928;4.440;2023-05-07T11:57:18;6.47;;;3.90;;
21245;SDS011;10781;50.928;4.440;2023-05-07T11:59:43;8.20;;;3.88;;
21245;SDS011;10781;50.928;4.440;2023-05-07T12:02:09;5.88;;;3.70;;
21245;SDS011;10781;50.928;4.440;2023-05-07T12:04:35;5.28;;;3.80;;
21245;SDS011;10781;50.928;4.440;2023-05-07T12:07:03;6.90;;;3.55;;
21245;SDS011;10781;50.928;4.440;2023-05-07T12:09:28;4.68;;;2.60;;
21245;SDS011;10781;50.928;4.440;2023-05-07T12:11:54;3.47;;;2.35;;
21245;SDS011;10781;50.928;4.440;2023-05-07T12:14:21;3.55;;;2.20;;
21245;SDS011;10781;50.928;4.440;2023-05-07T12:16:47;4.45;;;2.05;;
21245;SDS011;10781;50.928;4.440;2023-05-07T12:19:13;4.15;;;2.50;;
21245;SDS011;10781;50.928;4.440;2023-05-07T12:21:39;4.82;;;2.30;;
21245;SDS011;10781;50.928;4.440;2023-05-07T12:24:05;4.20;;;2.60;;
21245;SDS011;10781;50.928;4.440;2023-05-07T12:26:31;4.18;;;2.10;;
21245;SDS011;10781;50.928;4.440;2023-05-07T12:28:57;4.20;;;2.47;;
21245;SDS011;10781;50.928;4.440;2023-05-07T12:31:25;4.25;;;2.30;;
21245;SDS011;10781;50.928;4.440;2023-05-07T12:33:51;3.40;;;2.30;;
21245;SDS011;10781;50.928;4.440;2023-05-07T12:36:17;3.60;;;2.47;;
21245;SDS011;10781;50.928;4.440;2023-05-07T12:38:43;3.70;;;2.30;;
21245;SDS011;10781;50.928;4.440;2023-05-07T12:41:09;3.97;;;2.38;;
21245;SDS011;10781;50.928;4.440;2023-05-07T12:43:35;4.35;;;2.38;;
21245;SDS011;10781;50.928;4.440;2023-05-07T12:46:05;12.85;;;10.73;;
21245;SDS011;10781;50.928;4.440;2023-05-07T12:48:32;3.40;;;2.10;;
21245;SDS011;10781;50.928;4.440;2023-05-07T12:51:01;3.88;;;2.30;;
21245;SDS011;10781;50.928;4.440;2023-05-07T12:53:28;3.97;;;2.10;;
21245;SDS011;10781;50.928;4.440;2023-05-07T12:55:56;4.00;;;2.13;;
21245;SDS011;10781;50.928;4.440;2023-05-07T13:00:53;5.45;;;3.92;;
21245;SDS011;10781;50.928;4.440;2023-05-07T13:05:50;3.95;;;3.55;;
21245;SDS011;10781;50.928;4.440;2023-05-07T13:08:26;4.10;;;3.50;;
21245;SDS011;10781;50.928;4.440;2023-05-07T13:10:53;6.18;;;4.03;;
21245;SDS011;10781;50.928;4.440;2023-05-07T13:13:19;5.07;;;4.15;;
21245;SDS011;10781;50.928;4.440;2023-05-07T13:15:46;4.63;;;3.60;;
21245;SDS011;10781;50.928;4.440;2023-05-07T13:18:12;5.68;;;4.30;;
21245;SDS011;10781;50.928;4.440;2023-05-07T13:20:38;5.13;;;3.65;;
21245;SDS011;10781;50.928;4.440;2023-05-07T13:23:03;3.60;;;2.90;;
21245;SDS011;10781;50.928;4.440;2023-05-07T13:25:29;3.92;;;2.83;;
21245;SDS011;10781;50.928;4.440;2023-05-07T13:27:59;3.38;;;2.97;;
21245;SDS011;10781;50.928;4.440;2023-05-07T13:30:25;5.13;;;3.20;;
21245;SDS011;10781;50.928;4.440;2023-05-07T13:32:51;3.20;;;2.80;;
21245;SDS011;10781;50.928;4.440;2023-05-07T13:35:20;3.40;;;3.00;;
21245;SDS011;10781;50.928;4.440;2023-05-07T13:37:46;9.98;;;3.20;;
21245;SDS011;10781;50.928;4.440;2023-05-07T13:40:13;4.88;;;3.13;;
21245;SDS011;10781;50.928;4.440;2023-05-07T13:42:38;5.00;;;2.90;;
21245;SDS011;10781;50.928;4.440;2023-05-07T13:45:04;3.65;;;3.30;;
21245;SDS011;10781;50.928;4.440;2023-05-07T13:47:30;4.50;;;3.10;;
21245;SDS011;10781;50.928;4.440;2023-05-07T13:49:56;4.28;;;3.10;;
21245;SDS011;10781;50.928;4.440;2023-05-07T13:52:22;5.40;;;3.08;;
21245;SDS011;10781;50.928;4.440;2023-05-07T13:54:48;4.38;;;2.90;;
21245;SDS011;10781;50.928;4.440;2023-05-07T13:57:13;3.58;;;3.05;;
21245;SDS011;10781;50.928;4.440;2023-05-07T13:59:41;4.00;;;3.25;;
21245;SDS011;10781;50.928;4.440;2023-05-07T14:02:06;5.45;;;4.68;;
21245;SDS011;10781;50.928;4.440;2023-05-07T14:04:32;4.75;;;3.42;;
21245;SDS011;10781;50.928;4.440;2023-05-07T14:06:58;3.25;;;2.95;;
21245;SDS011;10781;50.928;4.440;2023-05-07T14:09:24;4.38;;;3.38;;
21245;SDS011;10781;50.928;4.440;2023-05-07T14:11:50;5.22;;;3.30;;
21245;SDS011;10781;50.928;4.440;2023-05-07T14:14:17;4.65;;;3.92;;
21245;SDS011;10781;50.928;4.440;2023-05-07T14:16:43;5.75;;;3.60;;
21245;SDS011;10781;50.928;4.440;2023-05-07T14:19:10;6.18;;;4.75;;
21245;SDS011;10781;50.928;4.440;2023-05-07T14:21:37;4.53;;;4.13;;
21245;SDS011;10781;50.928;4.440;2023-05-07T14:24:02;5.93;;;4.43;;
21245;SDS011;10781;50.928;4.440;2023-05-07T14:26:28;4.70;;;4.18;;
21245;SDS011;10781;50.928;4.440;2023-05-07T14:28:55;5.38;;;4.88;;
21245;SDS011;10781;50.928;4.440;2023-05-07T14:31:23;5.57;;;5.07;;
21245;SDS011;10781;50.928;4.440;2023-05-07T14:33:49;6.03;;;5.43;;
21245;SDS011;10781;50.928;4.440;2023-05-07T14:36:15;5.53;;;5.03;;
21245;SDS011;10781;50.928;4.440;2023-05-07T14:38:42;5.63;;;4.88;;
21245;SDS011;10781;50.928;4.440;2023-05-07T14:41:08;5.72;;;4.97;;
21245;SDS011;10781;50.928;4.440;2023-05-07T14:43:33;6.93;;;4.97;;
21245;SDS011;10781;50.928;4.440;2023-05-07T14:45:59;5.75;;;5.18;;
21245;SDS011;10781;50.928;4.440;2023-05-07T14:48:25;5.22;;;4.68;;
21245;SDS011;10781;50.928;4.440;2023-05-07T14:50:50;5.82;;;5.15;;
21245;SDS011;10781;50.928;4.440;2023-05-07T14:53:16;6.93;;;6.20;;
21245;SDS011;10781;50.928;4.440;2023-05-07T14:55:41;5.65;;;4.60;;
21245;SDS011;10781;50.928;4.440;2023-05-07T14:58:07;5.00;;;4.50;;
21245;SDS011;10781;50.928;4.440;2023-05-07T15:00:33;7.30;;;5.28;;